Time;durP1;ratioP1;P1;durP2;ratioP2;P2;SDS_P1;SDS_P2;PMS_P1;PMS_P2;Temp;Humidity;BMP_temperature;BMP_pressure;BME280_temperature;BME280_humidity;BME280_pressure;Samples;Min_cycle;Max_cycle;Signal;HPM_P1;HPM_P2
2022/01/22 00:01:43;;;;;;;40.65;6.50;;;;;;;6.25;85.12;103359.16;5095007;28;20165;-41
2022/01/22 00:04:08;;;;;;;;;;;;;;;6.24;85.15;103357.47;5095363;28;20028;-44
2022/01/22 00:06:33;;;;;;;34.53;6.63;;;;;;;6.21;85.52;103357.59;5093169;28;19916;-42
2022/01/22 00:08:59;;;;;;;30.98;6.22;;;;;;;6.23;85.24;103361.06;5094719;28;20399;-41
2022/01/22 00:11:29;;;;;;;33.75;6.28;;;;;;;6.22;85.56;103354.00;5094781;28;20020;-42
2022/01/22 00:16:37;;;;;;;37.00;6.55;;;;;;;6.25;85.43;103351.13;5093747;28;20507;-43
2022/01/22 00:19:08;;;;;;;40.08;6.38;;;;;;;6.22;85.85;103343.31;5094553;28;20024;-41
2022/01/22 00:21:33;;;;;;;41.60;6.57;;;;;;;6.22;85.88;103342.44;5094444;28;20024;-41
2022/01/22 00:24:01;;;;;;;28.38;5.72;;;;;;;6.24;85.68;103346.75;5094653;28;20047;-41
2022/01/22 00:26:27;;;;;;;43.28;6.20;;;;;;;6.26;86.00;103350.19;5093754;28;20028;-41
2022/01/22 00:28:52;;;;;;;35.92;5.53;;;;;;;6.25;86.16;103343.13;5093718;28;20060;-41
2022/01/22 00:31:17;;;;;;;36.03;5.88;;;;;;;6.27;86.56;103351.91;5093437;28;20028;-42
2022/01/22 00:33:43;;;;;;;35.03;6.07;;;;;;;6.32;85.87;103347.16;5094435;28;20062;-42
2022/01/22 00:36:08;;;;;;;38.58;5.80;;;;;;;6.30;85.84;103341.03;5093188;28;20036;-42
2022/01/22 00:38:33;;;;;;;44.10;7.72;;;;;;;6.29;85.90;103343.78;5092577;28;20025;-42
2022/01/22 00:40:59;;;;;;;19.75;4.15;;;;;;;6.28;86.18;103326.88;5092485;28;20024;-42
2022/01/22 00:43:25;;;;;;;34.13;4.80;;;;;;;6.28;86.20;103328.69;5094056;28;20016;-42
2022/01/22 00:45:50;;;;;;;23.55;5.03;;;;;;;6.31;86.19;103331.19;5093921;28;20079;-41
2022/01/22 00:48:16;;;;;;;27.15;4.20;;;;;;;6.40;85.65;103332.44;5092698;28;20086;-41
2022/01/22 00:50:41;;;;;;;23.80;3.80;;;;;;;6.40;85.32;103325.28;5092810;28;20024;-42
2022/01/22 00:53:06;;;;;;;44.13;5.18;;;;;;;6.38;85.29;103327.19;5093640;28;20024;-41
2022/01/22 00:55:32;;;;;;;26.02;3.13;;;;;;;6.38;85.58;103333.41;5093908;28;20032;-42
2022/01/22 00:57:57;;;;;;;35.85;4.53;;;;;;;6.40;85.59;103327.97;5093961;28;20055;-42
2022/01/22 01:00:23;;;;;;;30.98;4.03;;;;;;;6.38;85.79;103325.38;5093756;28;20487;-41
2022/01/22 01:02:48;;;;;;;35.30;4.18;;;;;;;6.37;86.44;103326.34;5093261;28;20372;-42
2022/01/22 01:05:14;;;;;;;29.90;4.63;;;;;;;6.44;86.13;103329.47;5093095;28;20073;-42
2022/01/22 01:07:40;;;;;;;29.27;4.25;;;;;;;6.44;86.04;103331.31;5092060;28;20028;-42
2022/01/22 01:10:07;;;;;;;36.78;4.47;;;;;;;6.45;86.06;103328.56;5093468;28;20106;-42
2022/01/22 01:12:33;;;;;;;37.15;4.75;;;;;;;6.48;86.04;103328.34;5093392;28;20065;-42
2022/01/22 01:15:22;;;;;;;34.63;4.82;;;;;;;6.49;86.00;103326.53;5093821;28;20493;-42
2022/01/22 01:34:23;;;;;;;45.00;5.13;;;;;;;6.48;87.32;103322.16;5093699;28;20074;-42
2022/01/22 01:36:49;;;;;;;44.88;5.38;;;;;;;6.49;86.99;103326.53;5091167;28;20364;-41
2022/01/22 01:39:21;;;;;;;35.95;4.30;;;;;;;6.43;87.00;103326.91;5093115;28;20099;-41
2022/01/22 01:41:54;;;;;;;21.67;4.65;;;;;;;6.53;86.06;103336.06;5092966;28;20028;-42
2022/01/22 01:44:20;;;;;;;37.50;6.03;;;;;;;6.49;85.97;103334.56;5093218;28;20472;-41
2022/01/22 01:46:50;;;;;;;27.02;5.40;;;;;;;6.47;86.35;103325.75;5083167;28;20131;-42
2022/01/22 01:49:16;;;;;;;22.40;4.38;;;;;;;6.48;85.93;103332.84;5072572;28;20059;-42
2022/01/22 01:51:42;;;;;;;33.35;5.13;;;;;;;6.51;85.59;103324.63;5078167;28;20054;-42
2022/01/22 01:59:37;;;;;;;32.90;4.20;;;;;;;6.53;85.01;103318.22;5092637;28;20046;-42
2022/01/22 02:02:03;;;;;;;34.33;4.40;;;;;;;6.51;85.83;103316.59;5092760;28;20024;-42
2022/01/22 02:04:28;;;;;;;35.50;4.57;;;;;;;6.49;85.48;103310.47;5092636;28;20028;-42
2022/01/22 02:06:55;;;;;;;26.77;4.63;;;;;;;6.49;85.27;103324.72;5087695;28;20115;-42
2022/01/22 02:09:21;;;;;;;29.00;4.15;;;;;;;6.54;85.02;103324.44;5093336;28;20047;-41
2022/01/22 02:11:54;;;;;;;15.95;3.90;;;;;;;6.50;85.30;103330.91;5092636;28;20028;-43
2022/01/22 02:25:16;;;;;;;37.38;4.85;;;;;;;6.56;85.14;103330.56;5080327;28;20078;-41
2022/01/22 02:27:41;;;;;;;29.58;4.45;;;;;;;6.53;85.49;103336.06;5093215;28;20332;-41
2022/01/22 02:30:07;;;;;;;32.63;4.13;;;;;;;6.52;85.67;103326.34;5093181;28;20530;-41
2022/01/22 02:35:23;;;;;;;22.70;3.70;;;;;;;6.55;85.90;103320.78;5092703;28;20101;-41
2022/01/22 02:37:55;;;;;;;18.77;3.78;;;;;;;6.55;85.35;103324.31;5092733;28;20545;-41
2022/01/22 02:40:27;;;;;;;26.52;3.42;;;;;;;6.58;85.41;103328.63;5090328;28;20044;-41
2022/01/22 02:42:53;;;;;;;28.50;3.80;;;;;;;6.58;85.00;103326.84;5092898;28;20063;-42
2022/01/22 02:45:22;;;;;;;24.60;3.70;;;;;;;6.58;85.65;103320.59;5092464;28;20076;-41
2022/01/22 02:47:48;;;;;;;24.05;3.55;;;;;;;6.57;85.80;103317.06;5093036;28;20036;-41
2022/01/22 02:50:14;;;;;;;14.30;3.03;;;;;;;6.66;85.26;103317.44;5091072;28;20086;-41
2022/01/22 02:52:39;;;;;;;29.13;4.22;;;;;;;6.67;85.60;103328.06;5091804;28;20028;-41
2022/01/22 02:55:07;;;;;;;20.00;3.75;;;;;;;6.66;85.85;103328.16;5086159;28;20484;-41
2022/01/22 02:57:34;;;;;;;25.45;3.35;;;;;;;6.66;86.14;103323.69;5089996;28;20399;-41
2022/01/22 03:00:00;;;;;;;34.88;3.72;;;;;;;6.66;86.15;103318.34;5092614;28;20024;-41
2022/01/22 03:02:26;;;;;;;31.63;4.03;;;;;;;6.68;86.40;103329.78;5094003;28;20561;-41
2022/01/22 03:04:51;;;;;;;33.45;3.97;;;;;;;6.69;86.42;103326.16;5095433;28;20039;-41
2022/01/22 03:07:16;;;;;;;42.40;4.20;;;;;;;6.71;86.33;103328.72;5095479;28;20546;-41
2022/01/22 03:09:45;;;;;;;38.95;4.32;;;;;;;6.68;86.65;103328.94;5095390;28;20049;-41
2022/01/22 03:20:06;;;;;;;29.10;3.95;;;;;;;6.67;86.51;103327.22;5096615;28;20042;-41
2022/01/22 03:22:54;;;;;;;42.90;4.68;;;;;;;6.64;86.79;103330.94;5095967;28;20081;-42
2022/01/22 03:28:00;;;;;;;23.50;3.03;;;;;;;6.65;86.23;103338.00;5079477;28;20123;-42
2022/01/22 03:30:26;;;;;;;27.85;3.13;;;;;;;6.68;86.09;103334.28;5090862;28;20103;-42
2022/01/22 03:32:54;;;;;;;28.80;3.42;;;;;;;6.71;85.94;103340.28;5096393;28;20032;-41
2022/01/22 03:37:56;;;;;;;32.22;4.25;;;;;;;6.74;85.88;103339.25;5096078;28;20118;-42
2022/01/22 03:40:25;;;;;;;23.05;3.20;;;;;;;6.74;85.59;103339.25;5095854;28;20032;-41
2022/01/22 03:42:51;;;;;;;23.95;3.15;;;;;;;6.74;86.10;103336.56;5096181;28;20027;-42
2022/01/22 03:45:17;;;;;;;27.75;3.28;;;;;;;6.71;86.46;103345.66;5095706;28;20467;-42
2022/01/22 03:47:43;;;;;;;29.85;4.05;;;;;;;6.69;86.83;103342.22;5095984;28;20040;-42
2022/01/22 03:50:10;;;;;;;21.05;3.20;;;;;;;6.70;86.78;103346.63;5095737;28;20412;-41
2022/01/22 03:52:35;;;;;;;24.30;3.47;;;;;;;6.68;86.88;103340.47;5096094;28;20043;-42
2022/01/22 03:55:01;;;;;;;26.75;3.70;;;;;;;6.74;86.79;103334.78;5095529;28;20384;-42
2022/01/22 03:57:26;;;;;;;26.55;3.10;;;;;;;6.70;86.54;103335.91;5094220;28;20032;-43
2022/01/22 03:59:54;;;;;;;18.70;3.30;;;;;;;6.69;86.56;103334.19;5095390;28;20028;-41
2022/01/22 04:05:05;;;;;;;15.98;2.78;;;;;;;6.67;87.54;103348.63;5095753;28;20043;-42
2022/01/22 04:08:07;;;;;;;36.20;5.18;;;;;;;6.69;86.92;103352.03;5095533;28;20027;-42
2022/01/22 04:10:27;;;;;;;31.08;3.95;;;;;;;6.70;86.96;103349.28;5074155;28;20094;-40
2022/01/22 04:13:01;;;;;;;17.80;2.70;;;;;;;6.69;86.95;103347.56;5075054;28;20412;-41
2022/01/22 04:15:29;;;;;;;21.58;3.03;;;;;;;6.65;86.95;103346.03;5093075;28;20349;-41
2022/01/22 04:28:48;;;;;;;24.05;3.90;;;;;;;6.72;84.84;103360.75;5095153;28;20040;-41
2022/01/22 04:31:14;;;;;;;22.40;2.55;;;;;;;6.71;84.71;103360.84;5094780;28;20063;-41
2022/01/22 04:33:39;;;;;;;17.63;2.45;;;;;;;6.73;84.01;103358.94;5094902;28;20111;-42
2022/01/22 04:36:06;;;;;;;16.77;2.47;;;;;;;6.74;83.55;103350.84;5094578;28;20093;-41
2022/01/22 04:38:32;;;;;;;14.15;2.28;;;;;;;6.76;83.96;103351.56;5092992;28;20035;-41
2022/01/22 04:40:59;;;;;;;11.77;2.25;;;;;;;6.75;83.77;103354.38;5092698;28;20024;-41
2022/01/22 04:43:24;;;;;;;17.60;2.33;;;;;;;6.74;83.40;103348.16;5094124;28;20020;-41
2022/01/22 04:46:06;;;;;;;11.20;2.17;;;;;;;6.82;81.77;103342.31;5091820;28;20055;-40
2022/01/22 04:56:35;;;;;;;16.77;1.98;;;;;;;6.84;81.79;103339.53;5093515;28;20078;-41
2022/01/22 04:59:02;;;;;;;15.43;2.67;;;;;;;6.79;82.19;103348.72;5093733;28;20063;-41
2022/01/22 05:01:27;;;;;;;9.73;2.15;;;;;;;6.81;82.28;103346.78;5093617;28;20491;-41
2022/01/22 05:03:52;;;;;;;31.88;2.75;;;;;;;6.77;82.65;103345.28;5093441;28;20024;-41
2022/01/22 05:06:18;;;;;;;20.75;2.78;;;;;;;6.74;82.96;103340.13;5093244;28;20024;-41
2022/01/22 05:08:43;;;;;;;14.70;2.53;;;;;;;6.74;83.49;103337.44;5091108;28;20051;-41
2022/01/22 05:11:08;;;;;;;18.75;2.58;;;;;;;6.73;83.66;103335.72;5073312;28;20029;-42
2022/01/22 05:13:35;;;;;;;21.95;2.53;;;;;;;6.70;84.15;103327.03;5075941;28;20182;-42
2022/01/22 05:16:00;;;;;;;14.07;2.55;;;;;;;6.74;84.08;103333.88;5093191;28;20039;-42
2022/01/22 05:18:26;;;;;;;21.58;3.05;;;;;;;6.75;84.42;103341.84;5092884;28;20020;-42
2022/01/22 05:21:00;;;;;;;19.38;2.58;;;;;;;6.77;84.53;103334.56;5092287;28;20452;-41
2022/01/22 05:23:26;;;;;;;17.20;2.75;;;;;;;6.77;85.14;103339.94;5090945;28;20119;-42
2022/01/22 05:25:56;;;;;;;23.65;3.25;;;;;;;6.77;85.80;103334.56;5078954;28;20155;-42
2022/01/22 05:31:19;;;;;;;32.17;3.25;;;;;;;6.69;87.12;103334.19;5093135;28;20043;-42
2022/01/22 05:39:07;;;;;;;31.08;3.60;;;;;;;6.69;87.67;103331.53;5093441;28;20110;-42
2022/01/22 05:41:32;;;;;;;35.63;4.72;;;;;;;6.67;88.16;103330.75;5093102;28;20039;-41
2022/01/22 05:43:58;;;;;;;33.70;5.07;;;;;;;6.72;87.86;103335.81;5090868;28;20502;-42
2022/01/22 05:46:23;;;;;;;26.02;4.57;;;;;;;6.69;88.74;103331.53;5092857;28;20097;-41
2022/01/22 05:48:48;;;;;;;36.22;5.68;;;;;;;6.67;88.70;103330.75;5092948;28;20369;-42
2022/01/22 05:51:15;;;;;;;36.92;6.20;;;;;;;6.71;88.94;103342.97;5092568;28;20024;-41
2022/01/22 05:53:55;;;;;;;30.20;5.30;;;;;;;6.70;89.31;103346.63;5093255;28;20468;-41
2022/01/22 06:01:48;;;;;;;44.17;7.43;;;;;;;6.68;89.99;103353.00;5074240;28;20028;-42
2022/01/22 06:04:13;;;;;;;37.22;7.35;;;;;;;6.72;89.58;103351.88;5093192;28;20028;-41
2022/01/22 06:06:39;;;;;;;47.63;7.28;;;;;;;6.69;89.46;103355.59;5091840;28;20024;-41
2022/01/22 06:09:08;;;;;;;44.95;8.18;;;;;;;6.67;89.75;103354.84;5092430;28;20042;-42
2022/01/22 06:11:40;;;;;;;26.85;7.00;;;;;;;6.68;89.75;103356.53;5092666;28;20058;-42
2022/01/22 06:14:06;;;;;;;36.65;7.47;;;;;;;6.69;89.71;103358.28;5090992;28;20127;-41
2022/01/22 06:16:31;;;;;;;33.63;7.03;;;;;;;6.74;89.18;103350.84;5090218;28;20455;-42
2022/01/22 06:18:56;;;;;;;36.08;6.95;;;;;;;6.74;89.21;103360.66;5092656;28;20513;-43
2022/01/22 06:21:22;;;;;;;34.65;7.88;;;;;;;6.73;89.33;103359.78;5092113;28;20125;-43
2022/01/22 06:23:47;;;;;;;32.55;6.28;;;;;;;6.76;89.14;103354.25;5092413;28;20027;-41
2022/01/22 06:26:13;;;;;;;33.22;7.07;;;;;;;6.76;88.80;103364.94;5091096;28;20173;-42
2022/01/22 06:28:38;;;;;;;36.65;5.80;;;;;;;6.75;88.29;103363.25;5092227;28;20020;-42
2022/01/22 06:31:04;;;;;;;27.33;6.45;;;;;;;6.77;88.18;103358.66;5088707;28;20063;-42
2022/01/22 06:33:30;;;;;;;35.42;6.50;;;;;;;6.76;88.34;103364.94;5091819;28;20039;-41
2022/01/22 06:35:56;;;;;;;27.88;7.03;;;;;;;6.74;88.61;103366.00;5081359;28;20032;-41
2022/01/22 06:38:21;;;;;;;23.67;5.30;;;;;;;6.77;88.09;103372.03;5089819;28;20032;-41
2022/01/22 06:43:31;;;;;;;21.08;5.45;;;;;;;6.76;88.34;103372.97;5091003;28;20502;-41
2022/01/22 06:45:57;;;;;;;21.65;5.20;;;;;;;6.77;88.31;103377.41;5088450;28;20139;-42
2022/01/22 06:48:23;;;;;;;28.90;5.72;;;;;;;6.82;87.25;103382.47;5091693;28;20111;-41
2022/01/22 06:50:49;;;;;;;16.60;4.82;;;;;;;6.84;86.89;103383.22;5092459;28;20451;-41
2022/01/22 06:53:15;;;;;;;16.17;4.78;;;;;;;6.82;87.00;103388.69;5091824;28;20032;-41
2022/01/22 06:55:59;;;;;;;22.13;4.75;;;;;;;6.83;87.14;103394.88;5087073;28;20024;-41
2022/01/22 06:58:25;;;;;;;22.20;5.38;;;;;;;6.86;87.06;103386.66;5079344;28;20062;-43
2022/01/22 07:00:50;;;;;;;22.65;5.45;;;;;;;6.84;86.98;103375.19;5071396;28;20447;-44
2022/01/22 07:03:16;;;;;;;24.17;5.43;;;;;;;6.86;87.00;103380.47;5075284;28;20074;-42
2022/01/22 07:05:41;;;;;;;35.60;6.40;;;;;;;6.84;87.29;103388.56;5073484;28;20387;-42
2022/01/22 07:08:06;;;;;;;26.10;5.65;;;;;;;6.85;87.25;103389.47;5088398;28;20567;-42
2022/01/22 07:10:32;;;;;;;28.75;5.93;;;;;;;6.88;86.78;103387.44;5088839;28;20498;-41
2022/01/22 07:12:57;;;;;;;40.90;6.13;;;;;;;6.91;87.09;103394.41;5086385;28;20024;-41
2022/01/22 07:15:23;;;;;;;25.52;5.93;;;;;;;6.89;86.92;103394.50;5071940;28;20043;-41
2022/01/22 07:17:48;;;;;;;34.00;5.28;;;;;;;6.92;87.12;103399.66;5083652;28;20104;-41
2022/01/22 07:20:16;;;;;;;27.80;5.43;;;;;;;6.92;86.45;103391.63;5086674;28;20043;-40
2022/01/22 07:22:51;;;;;;;27.25;6.13;;;;;;;6.92;87.30;103390.78;5086203;28;20426;-41
2022/01/22 07:25:17;;;;;;;32.03;6.03;;;;;;;6.91;87.13;103384.56;5088845;28;20036;-41
2022/01/22 07:27:44;;;;;;;24.00;5.68;;;;;;;6.89;87.29;103385.63;5087547;28;20029;-41
2022/01/22 07:30:10;;;;;;;23.55;5.32;;;;;;;6.92;87.47;103388.94;5087646;28;20039;-41
2022/01/22 07:32:38;;;;;;;30.33;5.88;;;;;;;6.92;87.13;103390.78;5082857;28;20028;-42
2022/01/22 07:35:04;;;;;;;39.10;6.07;;;;;;;6.94;86.86;103384.38;5068525;28;20078;-41
2022/01/22 07:37:30;;;;;;;29.38;6.18;;;;;;;6.93;87.00;103384.47;5084994;28;20542;-41
2022/01/22 07:39:55;;;;;;;29.17;6.57;;;;;;;6.94;87.40;103386.19;5088339;28;20032;-42
2022/01/22 07:42:21;;;;;;;29.67;6.13;;;;;;;6.94;87.37;103372.81;5088453;28;20036;-42
2022/01/22 07:44:46;;;;;;;28.17;6.25;;;;;;;6.93;86.93;103377.31;5070303;28;20028;-42
2022/01/22 07:47:12;;;;;;;32.42;7.10;;;;;;;6.92;87.09;103382.75;5086780;28;20036;-41
2022/01/22 07:49:37;;;;;;;26.92;8.13;;;;;;;6.91;87.58;103378.34;5089239;28;20124;-41
2022/01/22 07:52:03;;;;;;;27.10;6.60;;;;;;;6.94;87.45;103378.16;5092308;28;20054;-41
2022/01/22 07:54:28;;;;;;;34.75;6.38;;;;;;;6.95;87.42;103372.72;5092501;28;20487;-43
2022/01/22 07:56:53;;;;;;;38.83;7.07;;;;;;;7.01;86.71;103382.19;5085264;28;20447;-42
2022/01/22 07:59:19;;;;;;;27.80;6.40;;;;;;;7.01;87.36;103382.19;5073472;28;20483;-41
2022/01/22 08:01:44;;;;;;;29.30;6.85;;;;;;;7.05;86.87;103375.66;5080656;28;20035;-42
2022/01/22 08:04:10;;;;;;;22.98;6.90;;;;;;;7.01;85.99;103368.78;5092474;28;20074;-42
2022/01/22 08:06:35;;;;;;;30.30;7.53;;;;;;;7.02;85.77;103370.50;5091114;28;20013;-42
2022/01/22 08:09:01;;;;;;;27.48;7.95;;;;;;;7.00;85.61;103373.31;5091676;28;20036;-42
2022/01/22 08:11:26;;;;;;;29.10;7.28;;;;;;;6.99;85.71;103373.38;5092100;28;20020;-43
2022/01/22 08:13:51;;;;;;;33.08;9.48;;;;;;;7.01;85.99;103374.16;5091559;28;20043;-42
2022/01/22 08:16:16;;;;;;;29.50;7.40;;;;;;;6.96;86.31;103360.19;5091744;28;20024;-42
2022/01/22 08:18:42;;;;;;;30.05;7.22;;;;;;;6.98;86.40;103369.00;5091862;28;20038;-42
2022/01/22 08:21:07;;;;;;;24.63;7.65;;;;;;;7.00;86.21;103361.69;5091717;28;20115;-42
2022/01/22 08:23:33;;;;;;;35.17;8.07;;;;;;;7.02;86.18;103376.72;5091572;28;20040;-42
2022/01/22 08:25:59;;;;;;;36.85;8.02;;;;;;;7.03;85.99;103366.88;5091552;28;20114;-41
2022/01/22 08:36:36;;;;;;;48.63;9.77;;;;;;;7.02;87.27;103381.22;5091428;28;20140;-42
2022/01/22 08:39:01;;;;;;;33.67;9.02;;;;;;;7.02;87.42;103386.56;5079006;28;20067;-42
2022/01/22 08:41:27;;;;;;;27.48;8.45;;;;;;;7.00;87.72;103380.44;5076236;28;20054;-42
2022/01/22 08:43:54;;;;;;;32.05;8.57;;;;;;;7.06;87.12;103392.59;5091738;28;20051;-42
2022/01/22 08:46:19;;;;;;;32.92;8.63;;;;;;;7.10;86.80;103394.13;5088192;28;20487;-42
2022/01/22 08:48:45;;;;;;;25.05;8.88;;;;;;;7.14;85.99;103385.81;5091459;28;20043;-42
2022/01/22 08:51:12;;;;;;;32.40;8.68;;;;;;;7.11;85.90;103391.38;5089252;28;20054;-42
2022/01/22 08:53:37;;;;;;;31.20;9.50;;;;;;;7.09;86.34;103385.25;5090684;28;20035;-42
2022/01/22 08:56:05;;;;;;;29.30;9.32;;;;;;;7.07;86.58;103389.81;5090923;28;20391;-42
2022/01/22 08:58:30;;;;;;;36.78;9.13;;;;;;;7.15;85.96;103400.06;5091353;28;20282;-42
2022/01/22 09:00:55;;;;;;;27.90;8.50;;;;;;;7.21;85.65;103403.22;5090235;28;20642;-42
2022/01/22 09:03:21;;;;;;;28.88;9.25;;;;;;;7.17;85.99;103406.19;5085790;28;20077;-42
2022/01/22 09:05:47;;;;;;;35.72;10.15;;;;;;;7.12;85.96;103397.56;5090511;28;20082;-42
2022/01/22 09:08:16;;;;;;;37.45;9.80;;;;;;;7.11;86.64;103386.00;5090127;28;20056;-41
2022/01/22 09:13:14;;;;;;;35.95;10.38;;;;;;;7.13;86.14;103394.78;5066477;28;20401;-41
2022/01/22 09:15:39;;;;;;;33.78;10.35;;;;;;;7.11;86.61;103409.22;5067338;28;20021;-41
2022/01/22 09:18:06;;;;;;;47.22;10.80;;;;;;;7.15;86.64;103408.94;5064397;28;20040;-42
2022/01/22 09:20:54;;;;;;;37.47;11.00;;;;;;;7.19;86.23;103406.94;5068591;28;20021;-43
2022/01/22 09:23:18;;;;;;;27.70;11.38;;;;;;;7.23;86.02;103409.31;5061466;28;20060;-42
2022/01/22 09:25:44;;;;;;;36.00;9.77;;;;;;;7.18;86.28;103406.06;5049032;28;20469;-41
2022/01/22 09:28:13;;;;;;;45.00;11.00;;;;;;;7.16;86.66;103424.06;5049206;28;20564;-42
2022/01/22 09:30:40;;;;;;;42.88;10.70;;;;;;;7.11;86.87;103418.16;5049265;28;20464;-41
2022/01/22 09:33:05;;;;;;;41.40;11.40;;;;;;;7.12;86.99;103424.34;5046815;28;20037;-42
2022/01/22 09:35:31;;;;;;;36.15;12.07;;;;;;;7.15;86.86;103418.81;5048187;28;20063;-43
2022/01/22 09:37:57;;;;;;;39.42;10.25;;;;;;;7.21;86.50;103423.75;5040612;28;20503;-41
2022/01/22 09:40:24;;;;;;;33.13;9.77;;;;;;;7.24;85.80;103428.91;5029414;28;20095;-42
2022/01/22 09:42:49;;;;;;;38.78;11.65;;;;;;;7.25;85.82;103426.16;5043381;28;20044;-42
2022/01/22 09:45:17;;;;;;;32.60;9.27;;;;;;;7.23;85.91;103429.88;5047708;28;20029;-43
2022/01/22 09:47:45;;;;;;;30.63;9.90;;;;;;;7.28;85.55;103435.81;5047241;28;20037;-42
2022/01/22 09:50:11;;;;;;;;;;;;;;;7.28;85.14;103441.19;5048932;28;20025;-42
2022/01/22 09:52:38;;;;;;;31.25;9.85;;;;;;;7.29;85.18;103448.25;5047007;28;19920;-42
2022/01/22 09:55:04;;;;;;;25.83;8.60;;;;;;;7.22;84.96;103447.78;5048700;28;20053;-42
2022/01/22 09:57:29;;;;;;;35.10;9.90;;;;;;;7.29;84.62;103452.75;5048593;28;20061;-43
2022/01/22 09:59:54;;;;;;;33.90;9.18;;;;;;;7.31;84.36;103446.34;5048315;28;20029;-42
2022/01/22 10:02:21;;;;;;;27.23;8.27;;;;;;;7.33;84.56;103447.09;5048757;28;20078;-42
2022/01/22 10:04:52;;;;;;;33.67;8.65;;;;;;;7.40;84.42;103450.28;5047139;28;20033;-42
2022/01/22 10:07:24;;;;;;;28.80;8.85;;;;;;;7.42;84.31;103451.00;5048332;28;20040;-42
2022/01/22 10:09:56;;;;;;;24.88;8.70;;;;;;;7.50;83.46;103450.53;5048142;28;20029;-42
2022/01/22 10:12:23;;;;;;;27.88;10.30;;;;;;;7.57;82.06;103444.69;5051786;28;20045;-41
2022/01/22 10:15:14;;;;;;;30.75;9.32;;;;;;;7.57;82.57;103451.88;5048237;28;20125;-42
2022/01/22 10:17:45;;;;;;;30.08;9.20;;;;;;;7.58;81.70;103457.16;5043755;28;20044;-42
2022/01/22 10:20:32;;;;;;;24.23;9.27;;;;;;;7.58;82.85;103458.94;5048035;28;20033;-42
2022/01/22 10:23:23;;;;;;;35.42;10.77;;;;;;;7.63;82.68;103460.34;5044118;28;20037;-42
2022/01/22 10:25:56;;;;;;;31.05;9.52;;;;;;;7.65;83.27;103465.63;5033014;28;20472;-41
2022/01/22 10:28:23;;;;;;;24.48;8.85;;;;;;;7.65;83.51;103469.16;5035389;28;20044;-41
2022/01/22 10:30:59;;;;;;;37.55;10.52;;;;;;;7.70;83.04;103459.00;5034798;28;20022;-41
2022/01/22 10:33:34;;;;;;;32.83;10.55;;;;;;;7.77;81.98;103459.50;5034230;28;20033;-43
2022/01/22 10:36:14;;;;;;;38.75;9.88;;;;;;;7.75;81.87;103457.88;5034062;28;20036;-42
2022/01/22 10:38:43;;;;;;;25.95;9.90;;;;;;;7.72;81.75;103460.75;5033040;28;20072;-42
2022/01/22 10:41:08;;;;;;;27.40;10.45;;;;;;;7.69;81.83;103462.66;5034319;28;20102;-40
2022/01/22 10:43:41;;;;;;;27.48;10.50;;;;;;;7.72;82.00;103461.59;5033677;28;20037;-41
2022/01/22 10:48:55;;;;;;;40.58;10.82;;;;;;;7.81;82.07;103449.41;5034090;28;20037;-42
2022/01/22 10:51:20;;;;;;;38.67;12.02;;;;;;;7.74;82.72;103457.00;5033898;28;20468;-43
2022/01/22 10:53:55;;;;;;;38.58;12.00;;;;;;;7.68;83.22;103466.28;5032350;28;20053;-42
2022/01/22 10:56:22;;;;;;;36.22;12.77;;;;;;;7.67;83.09;103456.53;5016296;28;20205;-42
2022/01/22 10:59:16;;;;;;;36.60;12.95;;;;;;;7.62;83.67;103466.69;5033633;28;20029;-42
2022/01/22 11:01:54;;;;;;;46.80;13.63;;;;;;;7.62;83.75;103461.34;5033880;28;20359;-42
2022/01/22 11:04:24;;;;;;;41.00;13.23;;;;;;;7.58;84.04;103465.19;5033235;28;20393;-42
2022/01/22 11:07:00;;;;;;;38.80;15.02;;;;;;;7.60;84.39;103455.19;5027525;28;20481;-42
2022/01/22 11:09:29;;;;;;;35.38;15.30;;;;;;;7.59;84.89;103456.16;5034297;28;20428;-42
2022/01/22 11:11:55;;;;;;;40.25;15.50;;;;;;;7.60;85.21;103465.06;5033698;28;20405;-42
2022/01/22 11:14:20;;;;;;;46.50;16.63;;;;;;;7.63;84.93;103459.50;5025400;28;20034;-41
2022/01/22 11:16:48;;;;;;;43.15;17.13;;;;;;;7.64;84.88;103459.41;5027781;28;20033;-41
2022/01/22 11:19:19;;;;;;;46.70;17.55;;;;;;;7.65;84.71;103455.75;5024392;28;20030;-43
2022/01/22 11:21:47;;;;;;;44.65;18.58;;;;;;;7.64;84.79;103454.06;5023876;28;20050;-42
2022/01/22 11:24:18;;;;;;;46.65;17.23;;;;;;;7.60;85.25;103463.25;5033581;28;20104;-41
2022/01/22 11:26:48;;;;;;;48.78;17.63;;;;;;;7.60;84.22;103467.75;5033697;28;20048;-43
2022/01/22 11:29:14;;;;;;;49.92;16.52;;;;;;;7.55;84.30;103473.41;5024706;28;20079;-42
2022/01/22 11:31:45;;;;;;;46.85;17.67;;;;;;;7.55;84.32;103469.84;5030890;28;20123;-42
2022/01/22 11:34:13;;;;;;;40.13;16.92;;;;;;;7.48;84.60;103466.72;5022458;28;20045;-42
2022/01/22 11:36:44;;;;;;;45.33;17.42;;;;;;;7.54;85.22;103478.88;5027439;28;20025;-42
2022/01/22 11:39:18;;;;;;;49.47;17.95;;;;;;;7.52;84.36;103475.41;5032086;28;20041;-42
2022/01/22 11:41:54;;;;;;;46.80;18.33;;;;;;;7.43;85.27;103476.88;5031573;28;20148;-42
2022/01/22 11:44:33;;;;;;;54.65;19.65;;;;;;;7.32;86.00;103469.50;5027716;28;20036;-41
2022/01/22 11:47:10;;;;;;;48.17;21.13;;;;;;;7.32;86.12;103469.50;5033186;28;20116;-41
2022/01/22 11:49:36;;;;;;;48.63;20.17;;;;;;;7.37;85.53;103466.53;5024879;28;20026;-42
2022/01/22 11:52:08;;;;;;;52.42;20.50;;;;;;;7.34;85.37;103474.75;5030259;28;20315;-42
2022/01/22 11:54:55;;;;;;;72.75;24.92;;;;;;;7.34;85.50;103478.28;5028715;28;20493;-41
2022/01/22 11:57:21;;;;;;;63.50;22.17;;;;;;;7.35;85.17;103476.50;5032960;28;20044;-42
2022/01/22 11:59:47;;;;;;;44.75;20.08;;;;;;;7.35;85.22;103463.09;5027695;28;20033;-42
2022/01/22 12:02:14;;;;;;;52.38;21.20;;;;;;;7.28;84.70;103462.59;5025047;28;20065;-42
2022/01/22 12:04:39;;;;;;;60.53;20.80;;;;;;;7.23;84.37;103465.56;5022023;28;20032;-42
2022/01/22 12:07:04;;;;;;;48.38;20.83;;;;;;;7.28;84.76;103464.44;5023124;28;20025;-41
2022/01/22 12:09:31;;;;;;;50.20;20.00;;;;;;;7.24;84.80;103472.66;5018426;28;20033;-42
2022/01/22 12:14:48;;;;;;;52.38;20.17;;;;;;;7.19;84.74;103453.34;5027459;28;20111;-42
2022/01/22 12:17:20;;;;;;;51.33;20.48;;;;;;;7.22;85.56;103449.59;5021904;28;20774;-42
2022/01/22 12:20:16;;;;;;;64.88;21.27;;;;;;;7.21;84.99;103451.44;5023275;28;20065;-42
2022/01/22 12:22:37;;;;;;;44.72;21.48;;;;;;;7.24;84.97;103448.56;5017693;28;20429;-42
2022/01/22 12:25:22;;;;;;;58.70;21.75;;;;;;;7.23;85.17;103454.84;5025806;28;20033;-42
2022/01/22 12:27:52;;;;;;;45.70;22.20;;;;;;;7.26;84.59;103456.47;5032305;28;20025;-42
2022/01/22 12:30:34;;;;;;;56.28;22.30;;;;;;;7.20;84.46;103452.38;5032367;28;20040;-41
2022/01/22 12:33:00;;;;;;;47.00;22.08;;;;;;;7.20;84.56;103454.19;5032659;28;20453;-42
2022/01/22 12:35:35;;;;;;;50.63;22.83;;;;;;;7.21;84.06;103456.78;5032685;28;20037;-41
2022/01/22 12:38:24;;;;;;;61.53;24.27;;;;;;;7.22;84.46;103454.97;5033569;28;20025;-41
2022/01/22 12:40:54;;;;;;;54.47;24.02;;;;;;;7.21;84.53;103458.59;5031462;28;20037;-42
2022/01/22 12:43:27;;;;;;;55.78;22.90;;;;;;;7.20;84.21;103460.41;5032793;28;20036;-42
2022/01/22 12:45:56;;;;;;;46.80;22.67;;;;;;;7.18;83.93;103456.09;5031757;28;20021;-42
2022/01/22 12:48:21;;;;;;;49.05;21.58;;;;;;;7.23;83.99;103457.53;5032530;28;20025;-41
2022/01/22 12:50:47;;;;;;;55.30;25.58;;;;;;;7.16;84.19;103456.22;5031989;28;20105;-42
2022/01/22 12:53:15;;;;;;;60.33;23.17;;;;;;;7.10;84.40;103450.34;5031580;28;20537;-42
2022/01/22 12:58:30;;;;;;;63.40;24.05;;;;;;;7.14;85.01;103450.09;5032199;28;20048;-41
2022/01/22 13:01:17;;;;;;;52.65;23.38;;;;;;;7.11;85.10;103444.94;5030920;28;20469;-41
2022/01/22 13:03:45;;;;;;;57.67;23.73;;;;;;;7.03;84.78;103442.72;5012486;28;20026;-42
2022/01/22 13:06:11;;;;;;;63.45;24.85;;;;;;;7.02;85.00;103453.50;5030548;28;20276;-42
2022/01/22 13:08:37;;;;;;;56.17;23.52;;;;;;;6.93;84.96;103451.41;5031492;28;20050;-42
2022/01/22 13:11:07;;;;;;;63.22;24.25;;;;;;;6.90;85.31;103451.56;5031685;28;20025;-42
2022/01/22 13:13:32;;;;;;;60.58;24.40;;;;;;;6.87;85.50;103457.97;5030755;28;20033;-42
2022/01/22 13:16:06;;;;;;;57.45;24.23;;;;;;;6.89;85.69;103461.44;5030628;28;20030;-42
2022/01/22 13:18:41;;;;;;;69.25;26.30;;;;;;;6.91;85.71;103458.69;5032018;28;20025;-42